sensor_id;sensor_type;location;lat;lon;timestamp;temperature;humidity
21489;DHT22;10906;45.194;5.684;2022-09-03T05:00:19;18.10;99.90
21489;DHT22;10906;45.194;5.684;2022-09-03T05:03:03;18.10;99.90
21489;DHT22;10906;45.194;5.684;2022-09-03T05:05:55;18.10;99.90
21489;DHT22;10906;45.194;5.684;2022-09-03T05:08:39;18.10;99.90
21489;DHT22;10906;45.194;5.684;2022-09-03T05:11:25;18.10;99.90
21489;DHT22;10906;45.194;5.684;2022-09-03T05:14:10;18.10;99.90
21489;DHT22;10906;45.194;5.684;2022-09-03T05:16:55;18.10;99.90
21489;DHT22;10906;45.194;5.684;2022-09-03T05:19:39;18.10;99.90
21489;DHT22;10906;45.194;5.684;2022-09-03T05:22:23;18.10;99.90
21489;DHT22;10906;45.194;5.684;2022-09-03T05:25:08;18.00;99.90
21489;DHT22;10906;45.194;5.684;2022-09-03T05:27:52;18.00;99.90
21489;DHT22;10906;45.194;5.684;2022-09-03T05:30:37;18.10;99.90
21489;DHT22;10906;45.194;5.684;2022-09-03T05:33:21;18.10;99.90
21489;DHT22;10906;45.194;5.684;2022-09-03T05:36:12;18.10;99.90
21489;DHT22;10906;45.194;5.684;2022-09-03T05:38:58;18.10;99.90
21489;DHT22;10906;45.194;5.684;2022-09-03T05:41:43;18.20;99.90
21489;DHT22;10906;45.194;5.684;2022-09-03T05:44:27;18.20;99.90
21489;DHT22;10906;45.194;5.684;2022-09-03T05:47:12;18.20;99.90
21489;DHT22;10906;45.194;5.684;2022-09-03T05:49:57;18.20;99.90
21489;DHT22;10906;45.194;5.684;2022-09-03T05:52:41;18.20;99.90
21489;DHT22;10906;45.194;5.684;2022-09-03T05:55:26;18.20;99.90
21489;DHT22;10906;45.194;5.684;2022-09-03T05:58:11;18.30;99.90
21489;DHT22;10906;45.194;5.684;2022-09-03T06:00:56;18.30;99.90
21489;DHT22;10906;45.194;5.684;2022-09-03T06:03:41;18.30;99.90
21489;DHT22;10906;45.194;5.684;2022-09-03T06:06:27;18.40;99.90
21489;DHT22;10906;45.194;5.684;2022-09-03T06:09:17;18.40;99.90
21489;DHT22;10906;45.194;5.684;2022-09-03T06:12:02;18.40;99.90
21489;DHT22;10906;45.194;5.684;2022-09-03T06:14:46;18.40;99.90
21489;DHT22;10906;45.194;5.684;2022-09-03T06:17:30;18.50;99.90
21489;DHT22;10906;45.194;5.684;2022-09-03T06:20:14;18.50;99.90
21489;DHT22;10906;45.194;5.684;2022-09-03T06:22:59;18.40;99.90
21489;DHT22;10906;45.194;5.684;2022-09-03T06:25:42;18.40;99.90
21489;DHT22;10906;45.194;5.684;2022-09-03T06:28:27;18.40;99.90
21489;DHT22;10906;45.194;5.684;2022-09-03T06:31:13;18.40;99.90
21489;DHT22;10906;45.194;5.684;2022-09-03T06:33:58;18.30;99.90
21489;DHT22;10906;45.194;5.684;2022-09-03T06:36:42;18.30;99.90
21489;DHT22;10906;45.194;5.684;2022-09-03T06:39:27;18.40;99.90
21489;DHT22;10906;45.194;5.684;2022-09-03T06:42:11;18.40;99.90
21489;DHT22;10906;45.194;5.684;2022-09-03T06:44:56;18.50;99.90
21489;DHT22;10906;45.194;5.684;2022-09-03T06:47:41;18.50;99.90
21489;DHT22;10906;45.194;5.684;2022-09-03T06:50:25;18.60;99.90
21489;DHT22;10906;45.194;5.684;2022-09-03T06:53:09;18.70;99.90
21489;DHT22;10906;45.194;5.684;2022-09-03T06:55:59;18.70;99.90
21489;DHT22;10906;45.194;5.684;2022-09-03T06:58:47;18.70;99.90
21489;DHT22;10906;45.194;5.684;2022-09-03T07:01:32;18.80;99.90
21489;DHT22;10906;45.194;5.684;2022-09-03T07:04:17;18.80;99.90
21489;DHT22;10906;45.194;5.684;2022-09-03T07:07:02;18.90;99.90
21489;DHT22;10906;45.194;5.684;2022-09-03T07:09:46;18.90;99.90
21489;DHT22;10906;45.194;5.684;2022-09-03T07:12:31;18.90;99.90
21489;DHT22;10906;45.194;5.684;2022-09-03T07:15:21;19.00;99.90
21489;DHT22;10906;45.194;5.684;2022-09-03T07:18:05;19.20;99.90
21489;DHT22;10906;45.194;5.684;2022-09-03T07:20:49;19.20;99.90
21489;DHT22;10906;45.194;5.684;2022-09-03T07:23:35;19.30;99.90
21489;DHT22;10906;45.194;5.684;2022-09-03T07:26:22;19.40;99.90
21489;DHT22;10906;45.194;5.684;2022-09-03T07:29:07;19.50;99.90
21489;DHT22;10906;45.194;5.684;2022-09-03T07:31:51;19.60;99.90
21489;DHT22;10906;45.194;5.684;2022-09-03T07:34:36;19.80;99.90
21489;DHT22;10906;45.194;5.684;2022-09-03T07:37:20;20.00;99.90
21489;DHT22;10906;45.194;5.684;2022-09-03T07:40:04;20.10;99.90
21489;DHT22;10906;45.194;5.684;2022-09-03T07:42:55;20.20;99.90
21489;DHT22;10906;45.194;5.684;2022-09-03T07:45:40;20.50;99.90
21489;DHT22;10906;45.194;5.684;2022-09-03T07:48:24;20.60;99.90
21489;DHT22;10906;45.194;5.684;2022-09-03T07:51:09;20.60;99.90
21489;DHT22;10906;45.194;5.684;2022-09-03T07:53:56;20.60;99.90
21489;DHT22;10906;45.194;5.684;2022-09-03T07:56:41;20.60;99.90
21489;DHT22;10906;45.194;5.684;2022-09-03T07:59:25;20.70;99.90
21489;DHT22;10906;45.194;5.684;2022-09-03T08:02:10;21.70;99.90
21489;DHT22;10906;45.194;5.684;2022-09-03T08:04:54;21.00;99.90
21489;DHT22;10906;45.194;5.684;2022-09-03T08:07:39;21.30;99.90
21489;DHT22;10906;45.194;5.684;2022-09-03T08:10:23;21.40;99.90
21489;DHT22;10906;45.194;5.684;2022-09-03T08:13:08;21.60;99.90
21489;DHT22;10906;45.194;5.684;2022-09-03T08:15:55;22.00;99.90
21489;DHT22;10906;45.194;5.684;2022-09-03T08:18:39;21.90;99.90
21489;DHT22;10906;45.194;5.684;2022-09-03T08:21:25;22.10;99.90
21489;DHT22;10906;45.194;5.684;2022-09-03T08:24:13;22.20;99.90
21489;DHT22;10906;45.194;5.684;2022-09-03T08:26:57;22.20;99.90
21489;DHT22;10906;45.194;5.684;2022-09-03T08:29:42;22.20;99.90
21489;DHT22;10906;45.194;5.684;2022-09-03T08:32:26;22.30;99.90
21489;DHT22;10906;45.194;5.684;2022-09-03T08:35:11;22.40;99.90
21489;DHT22;10906;45.194;5.684;2022-09-03T08:37:56;22.50;99.90
21489;DHT22;10906;45.194;5.684;2022-09-03T08:40:40;22.70;99.90
21489;DHT22;10906;45.194;5.684;2022-09-03T08:43:26;22.80;99.90
21489;DHT22;10906;45.194;5.684;2022-09-03T08:46:11;23.00;99.90
21489;DHT22;10906;45.194;5.684;2022-09-03T08:48:56;23.10;99.90
21489;DHT22;10906;45.194;5.684;2022-09-03T08:51:44;23.20;99.90
21489;DHT22;10906;45.194;5.684;2022-09-03T08:54:31;23.10;99.90
21489;DHT22;10906;45.194;5.684;2022-09-03T08:57:18;23.20;99.90
21489;DHT22;10906;45.194;5.684;2022-09-03T09:00:03;23.60;99.90
21489;DHT22;10906;45.194;5.684;2022-09-03T09:03:20;23.80;99.90
21489;DHT22;10906;45.194;5.684;2022-09-03T09:15:31;23.20;99.90
21489;DHT22;10906;45.194;5.684;2022-09-03T09:21:21;23.90;99.90
21489;DHT22;10906;45.194;5.684;2022-09-03T09:24:16;24.20;99.90
21489;DHT22;10906;45.194;5.684;2022-09-03T09:27:05;24.70;99.90
21489;DHT22;10906;45.194;5.684;2022-09-03T09:29:51;24.80;99.90
21489;DHT22;10906;45.194;5.684;2022-09-03T09:32:36;24.90;99.90
21489;DHT22;10906;45.194;5.684;2022-09-03T09:35:22;24.90;99.90
21489;DHT22;10906;45.194;5.684;2022-09-03T09:38:06;24.90;99.90
21489;DHT22;10906;45.194;5.684;2022-09-03T09:40:51;25.10;99.90
21489;DHT22;10906;45.194;5.684;2022-09-03T09:43:35;25.30;99.90
21489;DHT22;10906;45.194;5.684;2022-09-03T09:46:22;25.10;99.90
21489;DHT22;10906;45.194;5.684;2022-09-03T09:49:31;25.00;99.90
21489;DHT22;10906;45.194;5.684;2022-09-03T09:52:16;25.10;99.90
21489;DHT22;10906;45.194;5.684;2022-09-03T09:55:10;25.30;99.90
21489;DHT22;10906;45.194;5.684;2022-09-03T09:58:05;25.30;99.90
21489;DHT22;10906;45.194;5.684;2022-09-03T10:01:14;25.60;99.90
21489;DHT22;10906;45.194;5.684;2022-09-03T10:04:13;25.90;99.30
21489;DHT22;10906;45.194;5.684;2022-09-03T10:07:20;26.10;99.90
21489;DHT22;10906;45.194;5.684;2022-09-03T10:10:14;26.40;99.50
21489;DHT22;10906;45.194;5.684;2022-09-03T10:13:08;26.20;98.70
21489;DHT22;10906;45.194;5.684;2022-09-03T10:16:20;25.90;98.70
21489;DHT22;10906;45.194;5.684;2022-09-03T10:19:12;25.70;96.70
21489;DHT22;10906;45.194;5.684;2022-09-03T10:22:18;25.60;98.60
21489;DHT22;10906;45.194;5.684;2022-09-03T10:25:04;25.60;98.80
21489;DHT22;10906;45.194;5.684;2022-09-03T10:27:50;25.90;99.00
21489;DHT22;10906;45.194;5.684;2022-09-03T10:34:15;26.70;97.50
21489;DHT22;10906;45.194;5.684;2022-09-03T10:37:31;26.60;97.40
21489;DHT22;10906;45.194;5.684;2022-09-03T10:50:01;27.60;95.20
21489;DHT22;10906;45.194;5.684;2022-09-03T11:01:55;27.20;93.70
21489;DHT22;10906;45.194;5.684;2022-09-03T11:07:48;26.50;94.60
21489;DHT22;10906;45.194;5.684;2022-09-03T11:10:34;26.30;94.40
21489;DHT22;10906;45.194;5.684;2022-09-03T11:13:25;26.20;94.60
21489;DHT22;10906;45.194;5.684;2022-09-03T11:17:03;26.10;94.90
21489;DHT22;10906;45.194;5.684;2022-09-03T11:19:31;26.20;94.80
21489;DHT22;10906;45.194;5.684;2022-09-03T11:22:18;26.30;94.40
21489;DHT22;10906;45.194;5.684;2022-09-03T11:25:05;26.20;94.20
21489;DHT22;10906;45.194;5.684;2022-09-03T11:34:10;26.40;93.90
21489;DHT22;10906;45.194;5.684;2022-09-03T11:37:21;26.40;93.20
21489;DHT22;10906;45.194;5.684;2022-09-03T11:40:16;26.60;92.20
21489;DHT22;10906;45.194;5.684;2022-09-03T11:43:25;26.70;93.20
21489;DHT22;10906;45.194;5.684;2022-09-03T11:49:11;26.60;91.80
21489;DHT22;10906;45.194;5.684;2022-09-03T11:52:01;26.30;90.10
21489;DHT22;10906;45.194;5.684;2022-09-03T11:54:47;26.30;92.20
21489;DHT22;10906;45.194;5.684;2022-09-03T11:57:32;26.20;92.40
21489;DHT22;10906;45.194;5.684;2022-09-03T12:00:22;26.20;92.40
21489;DHT22;10906;45.194;5.684;2022-09-03T12:03:13;26.10;92.50
21489;DHT22;10906;45.194;5.684;2022-09-03T12:15:48;26.70;92.50
21489;DHT22;10906;45.194;5.684;2022-09-03T12:18:39;27.20;91.10
21489;DHT22;10906;45.194;5.684;2022-09-03T12:21:24;27.50;91.10
21489;DHT22;10906;45.194;5.684;2022-09-03T12:24:10;27.70;90.10
21489;DHT22;10906;45.194;5.684;2022-09-03T12:26:57;27.90;90.10
21489;DHT22;10906;45.194;5.684;2022-09-03T12:30:16;28.10;89.90
21489;DHT22;10906;45.194;5.684;2022-09-03T12:33:04;28.20;85.50
21489;DHT22;10906;45.194;5.684;2022-09-03T12:35:57;28.10;87.90
21489;DHT22;10906;45.194;5.684;2022-09-03T12:38:42;28.00;87.70
21489;DHT22;10906;45.194;5.684;2022-09-03T12:41:28;27.90;89.20
21489;DHT22;10906;45.194;5.684;2022-09-03T12:44:18;28.00;89.30
21489;DHT22;10906;45.194;5.684;2022-09-03T12:47:18;28.00;90.20
21489;DHT22;10906;45.194;5.684;2022-09-03T12:50:11;28.10;88.50
21489;DHT22;10906;45.194;5.684;2022-09-03T12:52:58;28.30;88.30
21489;DHT22;10906;45.194;5.684;2022-09-03T12:55:45;28.10;89.40
21489;DHT22;10906;45.194;5.684;2022-09-03T12:58:48;28.10;90.10
21489;DHT22;10906;45.194;5.684;2022-09-03T13:01:50;28.20;87.80
21489;DHT22;10906;45.194;5.684;2022-09-03T13:04:38;28.20;88.30
21489;DHT22;10906;45.194;5.684;2022-09-03T13:10:30;28.00;87.30
21489;DHT22;10906;45.194;5.684;2022-09-03T13:13:35;27.90;86.80
21489;DHT22;10906;45.194;5.684;2022-09-03T13:31:43;28.60;87.90
21489;DHT22;10906;45.194;5.684;2022-09-03T13:34:36;27.60;87.40
21489;DHT22;10906;45.194;5.684;2022-09-03T13:37:39;27.50;86.70
21489;DHT22;10906;45.194;5.684;2022-09-03T13:41:17;27.40;86.80
21489;DHT22;10906;45.194;5.684;2022-09-03T13:44:23;27.30;86.50
21489;DHT22;10906;45.194;5.684;2022-09-03T13:50:16;26.90;88.00
21489;DHT22;10906;45.194;5.684;2022-09-03T13:53:17;26.80;89.20
21489;DHT22;10906;45.194;5.684;2022-09-03T13:56:18;26.70;90.00
21489;DHT22;10906;45.194;5.684;2022-09-03T14:12:02;27.10;89.10
21489;DHT22;10906;45.194;5.684;2022-09-03T14:21:30;28.10;85.80
21489;DHT22;10906;45.194;5.684;2022-09-03T14:24:45;28.20;85.90
21489;DHT22;10906;45.194;5.684;2022-09-03T14:27:31;28.40;85.20
21489;DHT22;10906;45.194;5.684;2022-09-03T14:30:32;28.50;83.20
21489;DHT22;10906;45.194;5.684;2022-09-03T14:33:42;28.60;83.30
21489;DHT22;10906;45.194;5.684;2022-09-03T14:39:58;29.40;79.60
21489;DHT22;10906;45.194;5.684;2022-09-03T14:46:11;30.20;80.20
21489;DHT22;10906;45.194;5.684;2022-09-03T14:52:28;30.60;74.60
21489;DHT22;10906;45.194;5.684;2022-09-03T14:55:32;30.70;77.40
21489;DHT22;10906;45.194;5.684;2022-09-03T15:01:31;31.30;74.80
21489;DHT22;10906;45.194;5.684;2022-09-03T15:04:49;31.50;73.80
21489;DHT22;10906;45.194;5.684;2022-09-03T15:08:07;31.70;68.10
21489;DHT22;10906;45.194;5.684;2022-09-03T15:11:02;31.40;68.60
21489;DHT22;10906;45.194;5.684;2022-09-03T15:13:58;30.70;70.20
21489;DHT22;10906;45.194;5.684;2022-09-03T15:23:11;29.00;73.80
21489;DHT22;10906;45.194;5.684;2022-09-03T15:29:25;28.70;77.20
21489;DHT22;10906;45.194;5.684;2022-09-03T15:41:45;31.10;71.50
21489;DHT22;10906;45.194;5.684;2022-09-03T15:44:52;31.30;71.60
21489;DHT22;10906;45.194;5.684;2022-09-03T15:47:56;31.50;69.10
21489;DHT22;10906;45.194;5.684;2022-09-03T15:53:41;31.30;70.00
21489;DHT22;10906;45.194;5.684;2022-09-03T16:05:25;30.50;70.00
21489;DHT22;10906;45.194;5.684;2022-09-03T16:11:23;29.10;70.50
21489;DHT22;10906;45.194;5.684;2022-09-03T16:14:25;28.90;71.90
21489;DHT22;10906;45.194;5.684;2022-09-03T16:17:38;28.80;73.60
21489;DHT22;10906;45.194;5.684;2022-09-03T16:20:35;28.90;72.40
21489;DHT22;10906;45.194;5.684;2022-09-03T16:23:59;29.10;72.90
21489;DHT22;10906;45.194;5.684;2022-09-03T16:26:55;29.20;72.50
21489;DHT22;10906;45.194;5.684;2022-09-03T16:38:57;28.20;73.90
21489;DHT22;10906;45.194;5.684;2022-09-03T16:41:59;27.80;74.70
21489;DHT22;10906;45.194;5.684;2022-09-03T16:45:16;27.60;75.80
21489;DHT22;10906;45.194;5.684;2022-09-03T16:50:57;27.20;77.10
21489;DHT22;10906;45.194;5.684;2022-09-03T16:57:17;26.90;77.20
21489;DHT22;10906;45.194;5.684;2022-09-03T17:18:44;25.30;80.30
21489;DHT22;10906;45.194;5.684;2022-09-03T17:24:45;26.30;82.60
21489;DHT22;10906;45.194;5.684;2022-09-03T17:33:52;26.10;84.60
21489;DHT22;10906;45.194;5.684;2022-09-03T17:36:47;26.00;84.90
21489;DHT22;10906;45.194;5.684;2022-09-03T17:42:53;25.90;85.40
21489;DHT22;10906;45.194;5.684;2022-09-03T17:46:21;25.80;87.40
21489;DHT22;10906;45.194;5.684;2022-09-03T17:49:25;25.70;87.20
21489;DHT22;10906;45.194;5.684;2022-09-03T17:58:46;25.50;87.10
21489;DHT22;10906;45.194;5.684;2022-09-03T18:01:36;25.40;87.20
21489;DHT22;10906;45.194;5.684;2022-09-03T18:04:33;25.40;88.10
21489;DHT22;10906;45.194;5.684;2022-09-03T18:10:48;25.30;88.60
21489;DHT22;10906;45.194;5.684;2022-09-03T18:17:04;25.20;88.40
21489;DHT22;10906;45.194;5.684;2022-09-03T18:20:09;25.10;88.50
21489;DHT22;10906;45.194;5.684;2022-09-03T18:23:32;25.10;88.70
21489;DHT22;10906;45.194;5.684;2022-09-03T18:26:42;25.10;90.00
21489;DHT22;10906;45.194;5.684;2022-09-03T18:29:53;25.10;90.00
21489;DHT22;10906;45.194;5.684;2022-09-03T18:32:57;24.90;90.00
21489;DHT22;10906;45.194;5.684;2022-09-03T18:36:00;24.80;89.80
21489;DHT22;10906;45.194;5.684;2022-09-03T18:39:25;24.90;89.70
21489;DHT22;10906;45.194;5.684;2022-09-03T18:42:54;24.80;88.90
21489;DHT22;10906;45.194;5.684;2022-09-03T18:46:29;24.50;83.70
21489;DHT22;10906;45.194;5.684;2022-09-03T18:49:41;24.10;85.90
21489;DHT22;10906;45.194;5.684;2022-09-03T18:56:08;23.40;85.20
21489;DHT22;10906;45.194;5.684;2022-09-03T19:09:16;22.70;86.60
21489;DHT22;10906;45.194;5.684;2022-09-03T19:15:45;21.80;93.50
21489;DHT22;10906;45.194;5.684;2022-09-03T19:22:39;20.70;97.50
21489;DHT22;10906;45.194;5.684;2022-09-03T19:25:43;20.00;98.60
21489;DHT22;10906;45.194;5.684;2022-09-03T19:28:47;19.50;99.90
21489;DHT22;10906;45.194;5.684;2022-09-03T19:31:59;19.20;99.90
21489;DHT22;10906;45.194;5.684;2022-09-03T19:35:19;19.10;99.90
21489;DHT22;10906;45.194;5.684;2022-09-03T19:38:48;19.10;99.90
21489;DHT22;10906;45.194;5.684;2022-09-03T19:42:13;19.00;99.90
21489;DHT22;10906;45.194;5.684;2022-09-03T19:45:33;19.00;99.90
21489;DHT22;10906;45.194;5.684;2022-09-03T19:55:04;18.70;99.90
21489;DHT22;10906;45.194;5.684;2022-09-03T19:58:09;18.70;99.90
21489;DHT22;10906;45.194;5.684;2022-09-03T20:01:14;18.70;99.90
21489;DHT22;10906;45.194;5.684;2022-09-03T20:04:30;18.80;99.90
21489;DHT22;10906;45.194;5.684;2022-09-03T20:07:34;18.90;99.90
21489;DHT22;10906;45.194;5.684;2022-09-03T20:10:38;19.00;99.90
21489;DHT22;10906;45.194;5.684;2022-09-03T20:13:23;19.00;99.90
21489;DHT22;10906;45.194;5.684;2022-09-03T20:16:58;19.00;99.90
21489;DHT22;10906;45.194;5.684;2022-09-03T20:22:20;19.20;99.90
21489;DHT22;10906;45.194;5.684;2022-09-03T20:25:31;19.30;99.90
21489;DHT22;10906;45.194;5.684;2022-09-03T20:28:50;19.30;99.90
21489;DHT22;10906;45.194;5.684;2022-09-03T20:50:43;19.20;99.90
21489;DHT22;10906;45.194;5.684;2022-09-03T20:56:29;19.10;99.90
21489;DHT22;10906;45.194;5.684;2022-09-03T20:59:34;19.10;99.90
21489;DHT22;10906;45.194;5.684;2022-09-03T21:14:39;18.80;99.90
21489;DHT22;10906;45.194;5.684;2022-09-03T21:17:47;18.70;99.90
21489;DHT22;10906;45.194;5.684;2022-09-03T21:23:31;18.60;99.90
21489;DHT22;10906;45.194;5.684;2022-09-03T21:26:21;18.60;99.90
21489;DHT22;10906;45.194;5.684;2022-09-03T21:29:12;18.70;99.90
21489;DHT22;10906;45.194;5.684;2022-09-03T21:35:25;18.70;99.90
21489;DHT22;10906;45.194;5.684;2022-09-03T21:38:12;18.80;99.90
21489;DHT22;10906;45.194;5.684;2022-09-03T21:41:06;18.70;99.90
21489;DHT22;10906;45.194;5.684;2022-09-03T21:44:14;18.60;99.90
21489;DHT22;10906;45.194;5.684;2022-09-03T21:47:07;18.60;99.90
21489;DHT22;10906;45.194;5.684;2022-09-03T21:50:24;18.80;99.90
21489;DHT22;10906;45.194;5.684;2022-09-03T21:59:25;18.90;99.90
